KGYY

Gary / Chicago International Airport

Gary, Indiana, USA
METAR KGYY 221745Z 03005KT 3SM BR OVC004 13/12 A3009
Observed Flight Rules
May-22 @ 17:45 UTC (9 minutes ago) Instrument Flight Rules
Wind Visibility Clouds Conditions
30° at 5 knots 3 miles
  • Overcast at 400' AGL
  • Mist
Temperatures Readings
Current 13°C / 55°F
Dewpoint 12°C / 54°F
Humidity 94%
Altimeter 30.09" Hg
Pressure 1019 hPa
Elevation 180
METAR KGYY 221745Z 03005KT 3SM BR OVC004 13/12 A3009
Observed Flight Rules
May-22 @ 17:45 UTC
(9 minutes ago)
LIFR
Wind Visibility
30° at 5 knots 3 miles
Clouds
  • Overcast at 400' AGL
Conditions
  • Mist
Temperature Dewpoint
13°C / 55°F 12°C / 54°F
Humidity Altimeter Pressure
94% 30.09" Hg 1019 hPa